Terminal Aerodrome Forecast
Issued by NWS Albany, NY

Current Version | Previous Version | Text Only | Print | Product List | Glossary Off
Versions: 1 2 3 4 5 6 7 8 9 10 11 12 13

000
FTUS41 KALY 091722
TAFGFL
TAF
KGFL 091722Z 0918/1018 21006KT P6SM BKN070
     FM092200 20007KT P6SM VCSH OVC050
     FM100300 VRB04KT 4SM -RA BR SCT008 BKN015 OVC030
     FM100900 VRB03KT 3SM BR BKN012 OVC025
     FM101200 VRB03KT P6SM BKN025 OVC040
     FM101600 23005KT P6SM VCSH BKN030 OVC040=

USA.gov is the U.S. government's official web portal to all federal, state and local government web resources and services.